»·PEaware :: N664NT KEWR-KJFK

N664NT :: KEWR-KJFK

FLIGHT INFORMATION

Flight Status: Arrived
Operator: Privately registered:
United States
More flights under this callsign
Pilot: Anonymous 328 (328)
Aircraft: Unknown
(GA7C)
More flights by this aircraft type
Origin: KEWR Newark Intl
United States
Destination: KJFK Kennedy Intl
United States
More flights between these airports :: More routes between these airports
Route: DPK
File this flight plan on PilotEdge
Remarks:
Altitude:
(Current/Filed)
11,000ft
Speed:
(Current/Filed)
0kts
Departed: 14-Nov-22 06:51 AM
Arrived: 14-Nov-22 07:59 AM
Distance/Time
Traveled:
11nm/1:08
Distance/Time
To Go:
Arrived

Flight Plot

Page will automatically refresh every two minutes.

Flight plan parsing failed; only flown route is shown


Map Options




Map Legend


Flown Route
Filed Route
Departure Airport
Arrival Airport
Navaid (VOR, NDB)
Fix

Horizontal Profiles

Position Reports

Time Latitude Longitude Heading Altitude Ground
Speed
14-Nov-22 06:31 40.693775 -74.169334 205 19ft 5kts
14-Nov-22 06:32 40.691998 -74.170471 205 19ft 5kts
14-Nov-22 06:33 40.689537 -74.172035 205 19ft 13kts
14-Nov-22 06:34 40.686157 -74.174187 205 19ft 13kts
14-Nov-22 06:35 40.682713 -74.176392 204 19ft 11kts
14-Nov-22 06:36 40.679710 -74.178299 206 19ft 10kts
14-Nov-22 06:37 40.677200 -74.179901 206 19ft 8kts
14-Nov-22 06:39 40.676422 -74.180397 201 19ft 0kts
14-Nov-22 06:40 40.676422 -74.180397 201 19ft 0kts
14-Nov-22 06:41 40.676422 -74.180397 201 19ft 0kts
14-Nov-22 06:42 40.676422 -74.180397 201 19ft 0kts
14-Nov-22 06:43 40.676422 -74.180397 201 19ft 0kts
14-Nov-22 06:44 40.676422 -74.180397 201 19ft 0kts
14-Nov-22 06:45 40.676422 -74.180397 201 19ft 0kts
14-Nov-22 06:46 40.676422 -74.180397 201 19ft 0kts
14-Nov-22 06:47 40.676422 -74.180397 201 19ft 0kts
14-Nov-22 06:48 40.676090 -74.180481 168 19ft 0kts
14-Nov-22 06:49 40.675621 -74.179665 93 19ft 6kts
14-Nov-22 06:50 40.675804 -74.179222 30 19ft 0kts
14-Nov-22 06:51 40.676945 -74.178474 26 19ft 67kts
14-Nov-22 06:52 40.720898 -74.135406 47 2279ft 256kts
14-Nov-22 06:53 40.775475 -74.075401 6 3931ft 264kts
14-Nov-22 06:54 40.819462 -74.138214 275 5007ft 268kts
14-Nov-22 06:55 40.828484 -74.236969 276 6440ft 272kts
14-Nov-22 06:56 40.852741 -74.329903 332 10152ft 288kts
14-Nov-22 06:57 40.927208 -74.303993 29 11007ft 293kts
14-Nov-22 06:58 40.999241 -74.251060 28 11005ft 323kts
14-Nov-22 06:59 41.073059 -74.172867 62 11007ft 350kts
14-Nov-22 07:00 41.116165 -74.050667 64 11008ft 384kts
14-Nov-22 07:01 41.161312 -73.922302 64 11009ft 384kts
14-Nov-22 07:02 41.206459 -73.793327 65 11008ft 384kts
14-Nov-22 07:03 41.251408 -73.664146 65 11005ft 384kts
14-Nov-22 07:03 41.295395 -73.562096 48 11006ft 384kts
14-Nov-22 07:04 41.370537 -73.460587 45 10997ft 384kts
14-Nov-22 07:06 41.457664 -73.341652 45 11001ft 383kts
14-Nov-22 07:07 41.533447 -73.241478 44 10989ft 383kts
14-Nov-22 07:08 41.609348 -73.141151 43 10997ft 383kts
14-Nov-22 07:08 41.672161 -73.057343 45 11003ft 364kts
14-Nov-22 07:09 41.732700 -72.973145 46 10623ft 291kts
14-Nov-22 07:10 41.788353 -72.895737 46 9164ft 284kts
14-Nov-22 07:12 41.852142 -72.807137 45 7169ft 276kts
14-Nov-22 07:13 41.905766 -72.732727 45 7164ft 276kts
14-Nov-22 07:13 41.950455 -72.670769 45 6843ft 275kts
14-Nov-22 07:14 42.003181 -72.597755 45 5416ft 269kts
14-Nov-22 07:15 42.044350 -72.518890 95 3369ft 261kts
14-Nov-22 07:16 41.990746 -72.488724 220 2011ft 256kts
14-Nov-22 07:17 41.937477 -72.552399 221 1999ft 257kts
14-Nov-22 07:18 41.884125 -72.616539 221 2002ft 257kts
14-Nov-22 07:19 41.830414 -72.679588 221 2002ft 257kts
14-Nov-22 07:20 41.772018 -72.734764 219 2002ft 257kts
14-Nov-22 07:21 41.722221 -72.803642 228 2000ft 257kts
14-Nov-22 07:22 41.674271 -72.877899 230 3125ft 251kts
14-Nov-22 07:23 41.625053 -72.945625 223 4800ft 266kts
14-Nov-22 07:24 41.570244 -73.014206 223 7041ft 275kts
14-Nov-22 07:25 41.517776 -73.079910 223 9206ft 249kts
14-Nov-22 07:26 41.454376 -73.116272 190 10341ft 256kts
14-Nov-22 07:27 41.385395 -73.136513 192 9016ft 250kts
14-Nov-22 07:28 41.321037 -73.154823 192 9004ft 228kts
14-Nov-22 07:29 41.258923 -73.172401 192 9003ft 228kts
14-Nov-22 07:30 41.197002 -73.189880 191 9005ft 228kts
14-Nov-22 07:31 41.134892 -73.207405 191 9004ft 228kts
14-Nov-22 07:32 41.072994 -73.224876 192 9005ft 228kts
14-Nov-22 07:33 41.010860 -73.242325 191 9005ft 228kts
14-Nov-22 07:34 40.948742 -73.259766 191 9006ft 228kts
14-Nov-22 07:35 40.886890 -73.277084 191 8956ft 224kts
14-Nov-22 07:36 40.825665 -73.294189 191 7626ft 223kts
14-Nov-22 07:37 40.766563 -73.296509 134 6309ft 219kts
14-Nov-22 07:38 40.788033 -73.242439 11 5039ft 213kts
14-Nov-22 07:39 40.846745 -73.227119 2 4999ft 214kts
14-Nov-22 07:40 40.864971 -73.286186 255 5006ft 214kts
14-Nov-22 07:41 40.850964 -73.363091 256 5002ft 214kts
14-Nov-22 07:42 40.807858 -73.375145 114 5007ft 214kts
14-Nov-22 07:43 40.785519 -73.302696 117 5003ft 214kts
14-Nov-22 07:44 40.817604 -73.253883 12 5005ft 214kts
14-Nov-22 07:45 40.876049 -73.236839 12 5003ft 214kts
14-Nov-22 07:46 40.927841 -73.251114 287 5004ft 214kts
14-Nov-22 07:47 40.894028 -73.305183 236 4688ft 213kts
14-Nov-22 07:48 40.870533 -73.374443 246 4003ft 184kts
14-Nov-22 07:49 40.849201 -73.434235 236 4002ft 177kts
14-Nov-22 07:50 40.824623 -73.487984 239 2855ft 169kts
14-Nov-22 07:51 40.802246 -73.537743 239 2501ft 150kts
14-Nov-22 07:52 40.781342 -73.584305 239 2502ft 145kts
14-Nov-22 07:53 40.760422 -73.629715 230 2500ft 144kts
14-Nov-22 07:54 40.730026 -73.664276 222 2128ft 144kts
14-Nov-22 07:55 40.702225 -73.702293 225 1403ft 142kts
14-Nov-22 07:56 40.671299 -73.734375 210 654ft 143kts
14-Nov-22 07:57 40.638485 -73.760147 210 20ft 99kts
14-Nov-22 07:58 40.635120 -73.762756 211 20ft 0kts
14-Nov-22 07:59 40.635120 -73.762756 211 20ft 0kts
14-Nov-22 08:00 40.635120 -73.762756 211 20ft 0kts
14-Nov-22 08:01 40.635120 -73.762756 211 20ft 0kts
14-Nov-22 08:02 40.635120 -73.762756 211 20ft 0kts
14-Nov-22 08:03 40.635120 -73.762756 211 20ft 0kts
14-Nov-22 08:04 40.635120 -73.762756 211 20ft 0kts
14-Nov-22 08:05 40.635120 -73.762756 211 20ft 0kts
14-Nov-22 08:06 40.635120 -73.762756 211 20ft 0kts
14-Nov-22 08:07 40.635120 -73.762756 211 20ft 0kts
14-Nov-22 08:08 40.854198 -74.055504 280 15ft 0kts

Navigation Log

Ident Type
Flight plan parsing failed, navigation log unavailable